Coral Coast — WDF5120 — position and weather

sailwx.info

Track history (hours):
 
Tides and Currents Weather Stations Pressure Air Temp Water Temp Dewpoint Dewpoint Depression Visibility Wind Speed Wind Dir Waves Ship Positions

Coral Coast

Owner: Dann MarineTowing, LC., Chesapeake City, MD. More information available from US FCC via Universal Licensing System and Coast Guard Vessel Documentation Center.

Last reported at 2015-May-04 12:19 UTC. Time now 2015-May-07 03:33 UTC.
Position N 37°59' W 075°01'.

Length 70 m; draft 5.3 m.

Type: Tug. MMSI: 367459570.

Date/timePositionNaut miles runAvg speedWind from/ knotsBaromVisibWave heightAir tempDewpointWater temp
2015-May-04 12:19N 37°59' W 075°01'11 9.7
2015-May-04 11:13N 38°09' W 074°56'6 9.6
2015-May-04 10:33N 38°15' W 074°53'10 9.5
2015-May-04 09:33N 38°24' W 074°51'10 9.9
2015-May-04 08:33N 38°34' W 074°51'9 9.1
2015-May-04 07:33N 38°40' W 074°42'10 9.5
2015-May-04 06:33N 38°48' W 074°37'9 9.5
2015-May-04 05:33N 38°57' W 074°31'9 9.5
2015-May-04 04:33N 39°05' W 074°26'10 9.6
2015-May-04 03:33N 39°14' W 074°20'9 9.3
2015-May-04 02:33N 39°22' W 074°13'9 9.1
2015-May-04 01:33N 39°29' W 074°07'9 9.3
2015-May-04 00:33N 39°38' W 074°03'9 9.2
2015-May-03 23:33N 39°46' W 073°58'9 9.3
2015-May-03 22:33N 39°56' W 073°58'9 9.1
2015-May-03 21:33N 40°05' W 073°56'10 9.1
2015-May-03 20:26N 40°15' W 073°54'8 8.8
2015-May-03 19:33N 40°22' W 073°51'9 9.2
2015-May-03 18:33N 40°27' W 073°40'9 9.5
2015-May-03 17:33N 40°30' W 073°29'9 9.5
2015-May-03 16:33N 40°34' W 073°17'10 9.7
2015-May-03 15:29N 40°37' W 073°04'910.0
2015-May-03 14:33N 40°40' W 072°53'10 9.6
2015-May-03 13:33N 40°43' W 072°41'9 9.5
2015-May-03 12:33N 40°46' W 072°29'9 9.4
2015-May-03 11:33N 40°49' W 072°17'10 9.7
2015-May-03 10:33N 40°54' W 072°06'10 9.8
2015-May-03 09:33N 40°58' W 071°54'1010.1
2015-May-03 08:33N 41°03' W 071°42'1010.2
2015-May-03 07:33N 41°08' W 071°31'1010.0
2015-May-03 06:33N 41°18' W 071°26'10 9.6
2015-May-03 05:33N 41°27' W 071°23'10 9.1
2015-May-03 04:29N 41°36' W 071°18'8 8.7
2015-May-03 03:33N 41°44' W 071°22'5 4.6
2015-May-03 02:33N 41°48' W 071°23'0 0.0
2015-May-03 01:33N 41°48' W 071°23'0 0.0
2015-May-03 00:31N 41°48' W 071°23'0 0.0
2015-May-02 23:26N 41°48' W 071°23'0 0.0
2015-May-02 21:31N 41°48' W 071°23'0 0.0
2015-May-02 20:32N 41°48' W 071°23'0 0.0
2015-May-02 19:28N 41°48' W 071°23'0 0.0
2015-May-02 18:17N 41°48' W 071°23'0 0.0
2015-May-02 17:19N 41°48' W 071°23'0 0.0
2015-May-02 16:25N 41°48' W 071°23'0 0.0
2015-May-02 14:31N 41°48' W 071°23'0 0.0
2015-May-02 13:30N 41°48' W 071°23'0 0.0
2015-May-02 12:33N 41°48' W 071°23'0 0.0
2015-May-02 11:33N 41°48' W 071°23'0 0.0
2015-May-02 10:33N 41°48' W 071°23'0 0.0
2015-May-02 09:33N 41°48' W 071°23'0 0.0
2015-May-02 08:33N 41°48' W 071°23'0 0.0
2015-May-02 07:31N 41°48' W 071°23'0 0.0
2015-May-02 06:33N 41°48' W 071°23'0 0.0
2015-May-02 05:33N 41°48' W 071°23'0 0.0
2015-May-02 04:30N 41°48' W 071°23'0 0.0
2015-May-02 03:33N 41°48' W 071°23'0 0.0
2015-May-02 02:30N 41°48' W 071°23'0 0.0
2015-May-02 01:33N 41°48' W 071°23'0 0.0
2015-May-02 00:33N 41°48' W 071°23'0 0.0
2015-May-01 23:33N 41°48' W 071°23'0 0.0
2015-May-01 22:31N 41°48' W 071°23'0 0.0
2015-May-01 21:28N 41°48' W 071°23'1 1.6
2015-May-01 20:33N 41°47' W 071°22'7 7.1
2015-May-01 19:33N 41°40' W 071°19'7 7.3
2015-May-01 18:33N 41°33' W 071°20'5 4.7
2015-May-01 17:33N 41°28' W 071°21'5 5.0
2015-May-01 16:33N 41°24' W 071°24'7 7.1
2015-May-01 15:33N 41°17' W 071°27'8 7.6
2015-May-01 14:33N 41°10' W 071°29'7 7.0
2015-May-01 13:33N 41°05' W 071°36'7 7.1
2015-May-01 12:33N 41°01' W 071°44'7 7.3
2015-May-01 11:33N 40°58' W 071°53'8 7.7
2015-May-01 10:33N 40°56' W 072°02'7 7.4
2015-May-01 09:33N 40°53' W 072°11'7 7.3
2015-May-01 08:33N 40°50' W 072°20'7 7.1
2015-May-01 07:33N 40°47' W 072°29'7 7.0
2015-May-01 06:33N 40°45' W 072°37'7 6.9
2015-May-01 05:33N 40°42' W 072°46'7 7.1
2015-May-01 04:33N 40°40' W 072°55'8 7.5
2015-May-01 03:27N 40°37' W 073°05'7 7.5
2015-May-01 02:31N 40°34' W 073°14'8 7.5
2015-May-01 01:29N 40°32' W 073°23'8 7.5
2015-May-01 00:29N 40°30' W 073°33'9 7.3
2015-Apr-30 23:13N 40°26' W 073°44'7 6.9
2015-Apr-30 22:16N 40°21' W 073°50'19 7.1
2015-Apr-30 19:32N 40°02' W 073°54'7 6.9
2015-Apr-30 18:33N 39°56' W 073°56'7 7.3
2015-Apr-30 17:33N 39°49' W 073°58'8 7.5
2015-Apr-30 16:32N 39°41' W 074°01'8 7.5
2015-Apr-30 15:32N 39°35' W 074°05'7 7.5
2015-Apr-30 14:33N 39°28' W 074°10'7 7.4
2015-Apr-30 13:33N 39°22' W 074°15'10 7.8
2015-Apr-30 12:13N 39°13' W 074°21'14 7.9
2015-Apr-30 10:26N 39°00' W 074°29'15 7.9
2015-Apr-30 08:32N 38°47' W 074°38'8 8.3
2015-Apr-30 07:33N 38°39' W 074°42'8 8.4
2015-Apr-30 06:33N 38°32' W 074°46'8 8.2
2015-Apr-30 05:33N 38°24' W 074°49'8 8.2
2015-Apr-30 04:33N 38°16' W 074°53'9 8.4
2015-Apr-30 03:32N 38°08' W 074°56'9 8.5
2015-Apr-30 02:26N 37°59' W 075°01'220 7.1
2015-Apr-28 19:21N 34°28' W 076°17'8 7.8
2015-Apr-28 18:23N 34°23' W 076°25'  
2015-Apr-25 12:33N 34°27' W 076°19'24 7.9
2015-Apr-25 09:31N 34°44' W 075°58'  
Track history (hours):
 
Tides and Currents Weather Stations Pressure Air Temp Water Temp Dewpoint Dewpoint Depression Visibility Wind Speed Wind Dir Waves Ship Positions

Coral Coast

Owner: Dann MarineTowing, LC., Chesapeake City, MD. More information available from US FCC via Universal Licensing System and Coast Guard Vessel Documentation Center.

Last reported at 2015-May-04 12:19 UTC. Time now 2015-May-07 03:33 UTC.
Position N 37°59' W 075°01'.

Length 70 m; draft 5.3 m.

Type: Tug. MMSI: 367459570.

Date/timePositionNaut miles runAvg speedWind from/ knotsBaromVisibWave heightAir tempDewpointWater temp
2015-May-04 12:19N 37°59' W 075°01'11 9.7
2015-May-04 11:13N 38°09' W 074°56'6 9.6
2015-May-04 10:33N 38°15' W 074°53'10 9.5
2015-May-04 09:33N 38°24' W 074°51'10 9.9
2015-May-04 08:33N 38°34' W 074°51'9 9.1
2015-May-04 07:33N 38°40' W 074°42'10 9.5
2015-May-04 06:33N 38°48' W 074°37'9 9.5
2015-May-04 05:33N 38°57' W 074°31'9 9.5
2015-May-04 04:33N 39°05' W 074°26'10 9.6
2015-May-04 03:33N 39°14' W 074°20'9 9.3
2015-May-04 02:33N 39°22' W 074°13'9 9.1
2015-May-04 01:33N 39°29' W 074°07'9 9.3
2015-May-04 00:33N 39°38' W 074°03'9 9.2
2015-May-03 23:33N 39°46' W 073°58'9 9.3
2015-May-03 22:33N 39°56' W 073°58'9 9.1
2015-May-03 21:33N 40°05' W 073°56'10 9.1
2015-May-03 20:26N 40°15' W 073°54'8 8.8
2015-May-03 19:33N 40°22' W 073°51'9 9.2
2015-May-03 18:33N 40°27' W 073°40'9 9.5
2015-May-03 17:33N 40°30' W 073°29'9 9.5
2015-May-03 16:33N 40°34' W 073°17'10 9.7
2015-May-03 15:29N 40°37' W 073°04'910.0
2015-May-03 14:33N 40°40' W 072°53'10 9.6
2015-May-03 13:33N 40°43' W 072°41'9 9.5
2015-May-03 12:33N 40°46' W 072°29'9 9.4
2015-May-03 11:33N 40°49' W 072°17'10 9.7
2015-May-03 10:33N 40°54' W 072°06'10 9.8
2015-May-03 09:33N 40°58' W 071°54'1010.1
2015-May-03 08:33N 41°03' W 071°42'1010.2
2015-May-03 07:33N 41°08' W 071°31'1010.0
2015-May-03 06:33N 41°18' W 071°26'10 9.6
2015-May-03 05:33N 41°27' W 071°23'10 9.1
2015-May-03 04:29N 41°36' W 071°18'8 8.7
2015-May-03 03:33N 41°44' W 071°22'5 4.6
2015-May-03 02:33N 41°48' W 071°23'0 0.0
2015-May-03 01:33N 41°48' W 071°23'0 0.0
2015-May-03 00:31N 41°48' W 071°23'0 0.0
2015-May-02 23:26N 41°48' W 071°23'0 0.0
2015-May-02 21:31N 41°48' W 071°23'0 0.0
2015-May-02 20:32N 41°48' W 071°23'0 0.0
2015-May-02 19:28N 41°48' W 071°23'0 0.0
2015-May-02 18:17N 41°48' W 071°23'0 0.0
2015-May-02 17:19N 41°48' W 071°23'0 0.0
2015-May-02 16:25N 41°48' W 071°23'0 0.0
2015-May-02 14:31N 41°48' W 071°23'0 0.0
2015-May-02 13:30N 41°48' W 071°23'0 0.0
2015-May-02 12:33N 41°48' W 071°23'0 0.0
2015-May-02 11:33N 41°48' W 071°23'0 0.0
2015-May-02 10:33N 41°48' W 071°23'0 0.0
2015-May-02 09:33N 41°48' W 071°23'0 0.0
2015-May-02 08:33N 41°48' W 071°23'0 0.0
2015-May-02 07:31N 41°48' W 071°23'0 0.0
2015-May-02 06:33N 41°48' W 071°23'0 0.0
2015-May-02 05:33N 41°48' W 071°23'0 0.0
2015-May-02 04:30N 41°48' W 071°23'0 0.0
2015-May-02 03:33N 41°48' W 071°23'0 0.0
2015-May-02 02:30N 41°48' W 071°23'0 0.0
2015-May-02 01:33N 41°48' W 071°23'0 0.0
2015-May-02 00:33N 41°48' W 071°23'0 0.0
2015-May-01 23:33N 41°48' W 071°23'0 0.0
2015-May-01 22:31N 41°48' W 071°23'0 0.0
2015-May-01 21:28N 41°48' W 071°23'1 1.6
2015-May-01 20:33N 41°47' W 071°22'7 7.1
2015-May-01 19:33N 41°40' W 071°19'7 7.3
2015-May-01 18:33N 41°33' W 071°20'5 4.7
2015-May-01 17:33N 41°28' W 071°21'5 5.0
2015-May-01 16:33N 41°24' W 071°24'7 7.1
2015-May-01 15:33N 41°17' W 071°27'8 7.6
2015-May-01 14:33N 41°10' W 071°29'7 7.0
2015-May-01 13:33N 41°05' W 071°36'7 7.1
2015-May-01 12:33N 41°01' W 071°44'7 7.3
2015-May-01 11:33N 40°58' W 071°53'8 7.7
2015-May-01 10:33N 40°56' W 072°02'7 7.4
2015-May-01 09:33N 40°53' W 072°11'7 7.3
2015-May-01 08:33N 40°50' W 072°20'7 7.1
2015-May-01 07:33N 40°47' W 072°29'7 7.0
2015-May-01 06:33N 40°45' W 072°37'7 6.9
2015-May-01 05:33N 40°42' W 072°46'7 7.1
2015-May-01 04:33N 40°40' W 072°55'8 7.5
2015-May-01 03:27N 40°37' W 073°05'7 7.5
2015-May-01 02:31N 40°34' W 073°14'8 7.5
2015-May-01 01:29N 40°32' W 073°23'8 7.5
2015-May-01 00:29N 40°30' W 073°33'9 7.3
2015-Apr-30 23:13N 40°26' W 073°44'7 6.9
2015-Apr-30 22:16N 40°21' W 073°50'19 7.1
2015-Apr-30 19:32N 40°02' W 073°54'7 6.9
2015-Apr-30 18:33N 39°56' W 073°56'7 7.3
2015-Apr-30 17:33N 39°49' W 073°58'8 7.5
2015-Apr-30 16:32N 39°41' W 074°01'8 7.5
2015-Apr-30 15:32N 39°35' W 074°05'7 7.5
2015-Apr-30 14:33N 39°28' W 074°10'7 7.4
2015-Apr-30 13:33N 39°22' W 074°15'10 7.8
2015-Apr-30 12:13N 39°13' W 074°21'14 7.9
2015-Apr-30 10:26N 39°00' W 074°29'15 7.9
2015-Apr-30 08:32N 38°47' W 074°38'8 8.3
2015-Apr-30 07:33N 38°39' W 074°42'8 8.4
2015-Apr-30 06:33N 38°32' W 074°46'8 8.2
2015-Apr-30 05:33N 38°24' W 074°49'8 8.2
2015-Apr-30 04:33N 38°16' W 074°53'9 8.4
2015-Apr-30 03:32N 38°08' W 074°56'9 8.5
2015-Apr-30 02:26N 37°59' W 075°01'220 7.1
2015-Apr-28 19:21N 34°28' W 076°17'8 7.8
2015-Apr-28 18:23N 34°23' W 076°25'  
2015-Apr-25 12:33N 34°27' W 076°19'24 7.9
2015-Apr-25 09:31N 34°44' W 075°58'  

Dump ship's entire track history